Flight Track Log - Related Links

Times and Time Zones

All times are in EST time to prevent confusion due to time zone crossing. See the N9305N flight status page for this flight to view local times or setup timezone preferences in your user account.

Time Position Orientation Groundspeed Altitude Reporting Facility
EST Latitude Longitude Course Direction KTS MPH feet Rate Location/Type
Sun 09:50:46 AM 28.5500 -81.3333 240° Southwest 90 104 600  Level Orlando TRACON
Sun 09:51:52 AM 28.5333 -81.3667 240° Southwest 79 91 1,400 667 Climbing Orlando TRACON
Sun 09:52:52 AM 28.5167 -81.3833 221° Southwest 82 94 2,000 350 Climbing Orlando TRACON
Sun 09:53:52 AM 28.5333 -81.4167 300° West 104 120 2,100 50 Climbing Orlando TRACON
Sun 09:54:52 AM 28.5500 -81.4500 300° West 98 113 2,100  Level Orlando TRACON
Sun 09:55:52 AM 28.5500 -81.4667 270° West 99 114 2,100  Level Orlando TRACON
Sun 09:56:46 AM 28.5667 -81.5000 300° West 105 121 2,100 263 Level Orlando TRACON
Sun 09:57:46 AM 28.6000 -81.5000 360° North 83 96 2,600 500 Climbing Orlando TRACON
Sun 09:58:46 AM 28.6167 -81.5167 319° Northwest 92 106 3,100 250 Climbing Orlando TRACON
Sun 09:59:46 AM 28.6500 -81.5500 319° Northwest 112 129 3,100  Level Orlando TRACON
Sun 10:00:46 AM 28.6667 -81.5667 319° Northwest 105 121 3,100  Level Orlando TRACON
Sun 10:01:41 AM 28.6833 -81.5833 319° Northwest 98 113 3,100  Level Orlando TRACON
Sun 10:02:41 AM 28.7167 -81.6000 336° Northwest 97 112 3,100  Level Orlando TRACON
Sun 10:03:41 AM 28.7333 -81.6167 319° Northwest 98 113 3,100  Level Orlando TRACON
Sun 10:04:41 AM 28.7500 -81.6333 319° Northwest 96 110 3,100  Level Orlando TRACON
Sun 10:05:47 AM 28.7833 -81.6333 360° North 101 116 3,100  Level Orlando TRACON
Sun 10:06:47 AM 28.7667 -81.6333 180° South 99 114 3,100  Level Orlando TRACON
Sun 10:07:41 AM 28.7500 -81.6167 139° Southeast 98 113 3,100  Level Orlando TRACON
Sun 10:08:41 AM 28.7500 -81.6000 90° East 123 142 3,100  Level Orlando TRACON
Sun 10:09:41 AM 28.7667 -81.6000 360° North 78 90 3,100  Level Orlando TRACON
Sun 10:10:41 AM 28.7833 -81.6167 319° Northwest 85 98 3,100  Level Orlando TRACON
Sun 10:11:41 AM 28.7667 -81.6333 221° Southwest 79 91 3,100  Level Orlando TRACON
Sun 10:12:47 AM 28.7500 -81.6167 139° Southeast 92 106 3,100  Level Orlando TRACON
Sun 10:13:47 AM 28.7500 -81.6000 90° East 119 137 3,100  Level Orlando TRACON
Sun 10:14:42 AM 28.7667 -81.6167 319° Northwest 71 82 3,100  Level Orlando TRACON
Sun 10:15:42 AM 28.7667 -81.6333 270° West 79 91 3,100  Level Orlando TRACON
Sun 10:16:47 AM 28.7500 -81.6333 180° South 109 125 3,100  Level Orlando TRACON
Sun 10:17:54 AM 28.7500 -81.6000 90° East 114 131 3,100  Level Orlando TRACON
Sun 10:18:54 AM 28.7667 -81.6333 300° West 76 87 3,100  Level Orlando TRACON
Sun 10:19:54 AM 28.7667 -81.6500 270° West 82 94 3,100  Level Orlando TRACON
Sun 10:20:54 AM 28.7667 -81.6667 270° West 94 108 3,100  Level Orlando TRACON
Sun 10:21:48 AM 28.7500 -81.6333 120° Southeast 111 128 3,100  Level Orlando TRACON
Sun 10:22:42 AM 28.7333 -81.6000 120° Southeast 109 125 3,100  Level Orlando TRACON
Sun 10:23:48 AM 28.7333 -81.5667 90° East 117 135 3,100  Level Orlando TRACON
Sun 10:24:49 AM 28.7333 -81.5333 90° East 119 137 3,100  Level Orlando TRACON
Sun 10:25:49 AM 28.7333 -81.4833 90° East 114 131 3,100  Level Orlando TRACON
Sun 10:26:43 AM 28.7333 -81.4667 90° East 112 129 3,100  Level Orlando TRACON
Sun 10:27:43 AM 28.7167 -81.4333 120° Southeast 108 124 3,100  Level Orlando TRACON
Sun 10:28:43 AM 28.7167 -81.4000 90° East 113 130 3,100 -50 Level Orlando TRACON
Sun 10:29:43 AM 28.7167 -81.3500 90° East 114 131 3,000  Descending Orlando TRACON
Sun 10:30:44 AM 28.7000 -81.3167 120° Southeast 113 130 3,100 50 Climbing Orlando TRACON
Sun 10:31:44 AM 28.7000 -81.2833 90° East 117 135 3,100  Level Orlando TRACON
Sun 10:32:44 AM 28.7000 -81.2500 90° East 120 138 3,100  Level Orlando TRACON
Sun 10:33:56 AM 28.6833 -81.2000 111° Southeast 120 138 3,100  Level Orlando TRACON
Sun 10:34:56 AM 28.6833 -81.1667 90° East 122 140 3,100 -149 Level Orlando TRACON
Sun 10:35:57 AM 28.6667 -81.1333 120° Southeast 116 133 2,800 -99 Descending Orlando TRACON
Sun 10:36:57 AM 28.6500 -81.1333 180° South 83 96 2,900 -150 Climbing Orlando TRACON
Sun 10:37:57 AM 28.6167 -81.1500 204° Southwest 89 102 2,500 -429 Descending Orlando TRACON
Sun 10:39:03 AM 28.6000 -81.1833 240° Southwest 94 108 2,000 -500 Descending Orlando TRACON
Sun 10:39:57 AM 28.6000 -81.2000 270° West 103 119 1,500 -556 Descending Orlando TRACON

Login

Don't have an account? Register now (free) for customized features, flight alerts, and more!